sensor_id;sensor_type;location;lat;lon;timestamp;temperature;humidity
6822;DHT22;3449;48.728;8.968;2023-07-31T00:01:12;14.90;99.90
6822;DHT22;3449;48.728;8.968;2023-07-31T00:03:38;14.90;99.90
6822;DHT22;3449;48.728;8.968;2023-07-31T00:06:07;14.90;99.90
6822;DHT22;3449;48.728;8.968;2023-07-31T00:08:33;14.90;99.90
6822;DHT22;3449;48.728;8.968;2023-07-31T00:11:00;14.80;99.90
6822;DHT22;3449;48.728;8.968;2023-07-31T00:13:27;14.80;99.90
6822;DHT22;3449;48.728;8.968;2023-07-31T00:15:54;14.80;99.90
6822;DHT22;3449;48.728;8.968;2023-07-31T00:18:21;14.70;99.90
6822;DHT22;3449;48.728;8.968;2023-07-31T00:20:50;14.70;99.90
6822;DHT22;3449;48.728;8.968;2023-07-31T00:23:18;14.60;99.90
6822;DHT22;3449;48.728;8.968;2023-07-31T00:25:47;14.50;99.90
6822;DHT22;3449;48.728;8.968;2023-07-31T00:28:14;14.50;99.90
6822;DHT22;3449;48.728;8.968;2023-07-31T00:30:41;14.40;99.90
6822;DHT22;3449;48.728;8.968;2023-07-31T00:33:09;14.40;99.90
6822;DHT22;3449;48.728;8.968;2023-07-31T00:35:36;14.40;99.90
6822;DHT22;3449;48.728;8.968;2023-07-31T00:38:03;14.30;99.90
6822;DHT22;3449;48.728;8.968;2023-07-31T00:40:36;14.30;99.90
6822;DHT22;3449;48.728;8.968;2023-07-31T00:43:03;14.20;99.90
6822;DHT22;3449;48.728;8.968;2023-07-31T00:45:33;14.20;99.90
6822;DHT22;3449;48.728;8.968;2023-07-31T00:48:00;14.20;99.90
6822;DHT22;3449;48.728;8.968;2023-07-31T00:50:27;14.10;99.90
6822;DHT22;3449;48.728;8.968;2023-07-31T00:52:54;14.00;99.90
6822;DHT22;3449;48.728;8.968;2023-07-31T00:55:21;13.90;99.90
6822;DHT22;3449;48.728;8.968;2023-07-31T00:57:51;13.90;99.90
6822;DHT22;3449;48.728;8.968;2023-07-31T01:00:21;13.90;99.90
6822;DHT22;3449;48.728;8.968;2023-07-31T01:02:48;13.80;99.90
6822;DHT22;3449;48.728;8.968;2023-07-31T01:05:18;13.90;99.90
6822;DHT22;3449;48.728;8.968;2023-07-31T01:07:51;13.80;99.90
6822;DHT22;3449;48.728;8.968;2023-07-31T01:10:21;13.80;99.90
6822;DHT22;3449;48.728;8.968;2023-07-31T01:12:50;13.80;99.90
6822;DHT22;3449;48.728;8.968;2023-07-31T01:15:17;13.70;99.90
6822;DHT22;3449;48.728;8.968;2023-07-31T01:17:44;13.70;99.90
6822;DHT22;3449;48.728;8.968;2023-07-31T01:20:13;13.80;99.90
6822;DHT22;3449;48.728;8.968;2023-07-31T01:22:54;13.80;99.90
6822;DHT22;3449;48.728;8.968;2023-07-31T01:28:36;13.70;99.90
6822;DHT22;3449;48.728;8.968;2023-07-31T01:31:07;13.70;99.90
6822;DHT22;3449;48.728;8.968;2023-07-31T01:33:37;13.80;99.90
6822;DHT22;3449;48.728;8.968;2023-07-31T01:36:04;13.80;99.90
6822;DHT22;3449;48.728;8.968;2023-07-31T01:38:32;13.80;99.90
6822;DHT22;3449;48.728;8.968;2023-07-31T01:40:58;13.70;99.90
6822;DHT22;3449;48.728;8.968;2023-07-31T01:43:25;13.70;99.90
6822;DHT22;3449;48.728;8.968;2023-07-31T01:45:54;13.70;99.90
6822;DHT22;3449;48.728;8.968;2023-07-31T01:48:21;13.70;99.90
6822;DHT22;3449;48.728;8.968;2023-07-31T01:50:47;13.70;99.90
6822;DHT22;3449;48.728;8.968;2023-07-31T01:53:14;13.70;99.90
6822;DHT22;3449;48.728;8.968;2023-07-31T01:55:41;13.70;99.90
6822;DHT22;3449;48.728;8.968;2023-07-31T01:58:08;13.70;99.90
6822;DHT22;3449;48.728;8.968;2023-07-31T02:00:35;13.80;99.90
6822;DHT22;3449;48.728;8.968;2023-07-31T02:03:03;13.70;99.90
6822;DHT22;3449;48.728;8.968;2023-07-31T02:05:30;13.70;99.90
6822;DHT22;3449;48.728;8.968;2023-07-31T02:07:57;13.70;99.90
6822;DHT22;3449;48.728;8.968;2023-07-31T02:10:23;13.60;99.90
6822;DHT22;3449;48.728;8.968;2023-07-31T02:12:52;13.60;99.90
6822;DHT22;3449;48.728;8.968;2023-07-31T02:15:19;13.60;99.90
6822;DHT22;3449;48.728;8.968;2023-07-31T02:17:47;13.50;99.90
6822;DHT22;3449;48.728;8.968;2023-07-31T02:20:15;13.50;99.90
6822;DHT22;3449;48.728;8.968;2023-07-31T02:22:42;13.50;99.90
6822;DHT22;3449;48.728;8.968;2023-07-31T02:25:09;13.50;99.90
6822;DHT22;3449;48.728;8.968;2023-07-31T02:27:35;13.50;99.90
6822;DHT22;3449;48.728;8.968;2023-07-31T02:30:02;13.50;99.90
6822;DHT22;3449;48.728;8.968;2023-07-31T02:32:29;13.50;99.90
6822;DHT22;3449;48.728;8.968;2023-07-31T02:34:59;13.50;99.90
6822;DHT22;3449;48.728;8.968;2023-07-31T02:37:27;13.40;99.90
6822;DHT22;3449;48.728;8.968;2023-07-31T02:39:54;13.30;99.90
6822;DHT22;3449;48.728;8.968;2023-07-31T02:42:21;13.30;99.90
6822;DHT22;3449;48.728;8.968;2023-07-31T02:44:52;13.20;99.90
6822;DHT22;3449;48.728;8.968;2023-07-31T02:47:21;13.20;99.90
6822;DHT22;3449;48.728;8.968;2023-07-31T02:49:48;13.20;99.90
6822;DHT22;3449;48.728;8.968;2023-07-31T02:52:15;13.10;99.90
6822;DHT22;3449;48.728;8.968;2023-07-31T02:54:43;13.10;99.90
6822;DHT22;3449;48.728;8.968;2023-07-31T02:57:10;13.10;99.90
6822;DHT22;3449;48.728;8.968;2023-07-31T02:59:37;13.10;99.90
6822;DHT22;3449;48.728;8.968;2023-07-31T03:02:03;13.00;99.90
6822;DHT22;3449;48.728;8.968;2023-07-31T03:04:30;13.00;99.90
6822;DHT22;3449;48.728;8.968;2023-07-31T03:06:57;13.00;99.90
6822;DHT22;3449;48.728;8.968;2023-07-31T03:09:24;13.00;99.90
6822;DHT22;3449;48.728;8.968;2023-07-31T03:11:52;13.00;99.90
6822;DHT22;3449;48.728;8.968;2023-07-31T03:14:19;13.00;99.90
6822;DHT22;3449;48.728;8.968;2023-07-31T03:16:46;13.10;99.90
6822;DHT22;3449;48.728;8.968;2023-07-31T03:19:13;13.10;99.90
6822;DHT22;3449;48.728;8.968;2023-07-31T03:21:39;13.10;99.90
6822;DHT22;3449;48.728;8.968;2023-07-31T03:24:06;13.10;99.90
6822;DHT22;3449;48.728;8.968;2023-07-31T03:26:33;13.10;99.90
6822;DHT22;3449;48.728;8.968;2023-07-31T03:29:03;13.20;99.90
6822;DHT22;3449;48.728;8.968;2023-07-31T03:31:30;13.20;99.90
6822;DHT22;3449;48.728;8.968;2023-07-31T03:33:56;13.30;99.90
6822;DHT22;3449;48.728;8.968;2023-07-31T03:36:23;13.30;99.90
6822;DHT22;3449;48.728;8.968;2023-07-31T03:38:51;13.40;99.90
6822;DHT22;3449;48.728;8.968;2023-07-31T03:41:18;13.40;99.90
6822;DHT22;3449;48.728;8.968;2023-07-31T03:43:46;13.40;99.90
6822;DHT22;3449;48.728;8.968;2023-07-31T03:46:14;13.50;99.90
6822;DHT22;3449;48.728;8.968;2023-07-31T03:48:41;13.50;99.90
6822;DHT22;3449;48.728;8.968;2023-07-31T03:51:07;13.50;99.90
6822;DHT22;3449;48.728;8.968;2023-07-31T03:53:34;13.50;99.90
6822;DHT22;3449;48.728;8.968;2023-07-31T03:56:01;13.60;99.90
6822;DHT22;3449;48.728;8.968;2023-07-31T03:58:28;13.60;99.90
6822;DHT22;3449;48.728;8.968;2023-07-31T04:00:55;13.60;99.90
6822;DHT22;3449;48.728;8.968;2023-07-31T04:03:23;13.70;99.90
6822;DHT22;3449;48.728;8.968;2023-07-31T04:05:54;13.70;99.90
6822;DHT22;3449;48.728;8.968;2023-07-31T04:08:21;13.70;99.90
6822;DHT22;3449;48.728;8.968;2023-07-31T04:10:48;13.70;99.90
6822;DHT22;3449;48.728;8.968;2023-07-31T04:13:15;13.70;99.90
6822;DHT22;3449;48.728;8.968;2023-07-31T04:15:42;13.70;99.90
6822;DHT22;3449;48.728;8.968;2023-07-31T04:18:08;13.80;99.90
6822;DHT22;3449;48.728;8.968;2023-07-31T04:20:37;13.70;99.90
6822;DHT22;3449;48.728;8.968;2023-07-31T04:23:03;13.70;99.90
6822;DHT22;3449;48.728;8.968;2023-07-31T04:25:30;13.70;99.90
6822;DHT22;3449;48.728;8.968;2023-07-31T04:28:02;13.80;99.90
6822;DHT22;3449;48.728;8.968;2023-07-31T04:30:29;13.80;99.90
6822;DHT22;3449;48.728;8.968;2023-07-31T04:32:56;13.80;99.90
6822;DHT22;3449;48.728;8.968;2023-07-31T04:35:23;13.90;99.90
6822;DHT22;3449;48.728;8.968;2023-07-31T04:37:51;13.90;99.90
6822;DHT22;3449;48.728;8.968;2023-07-31T04:40:18;13.90;99.90
6822;DHT22;3449;48.728;8.968;2023-07-31T04:42:44;14.00;99.90
6822;DHT22;3449;48.728;8.968;2023-07-31T04:45:12;14.00;99.90
6822;DHT22;3449;48.728;8.968;2023-07-31T04:47:38;14.00;99.90
6822;DHT22;3449;48.728;8.968;2023-07-31T04:50:06;14.00;99.90
6822;DHT22;3449;48.728;8.968;2023-07-31T04:52:33;14.00;99.90
6822;DHT22;3449;48.728;8.968;2023-07-31T04:55:04;14.00;99.90
6822;DHT22;3449;48.728;8.968;2023-07-31T04:57:31;14.00;99.90
6822;DHT22;3449;48.728;8.968;2023-07-31T04:59:58;14.10;99.90
6822;DHT22;3449;48.728;8.968;2023-07-31T05:02:25;14.10;99.90
6822;DHT22;3449;48.728;8.968;2023-07-31T05:04:52;14.10;99.90
6822;DHT22;3449;48.728;8.968;2023-07-31T05:07:18;14.20;99.90
6822;DHT22;3449;48.728;8.968;2023-07-31T05:09:45;14.30;99.90
6822;DHT22;3449;48.728;8.968;2023-07-31T05:12:14;14.30;99.90
6822;DHT22;3449;48.728;8.968;2023-07-31T05:14:45;14.30;99.90
6822;DHT22;3449;48.728;8.968;2023-07-31T05:17:12;14.30;99.90
6822;DHT22;3449;48.728;8.968;2023-07-31T05:19:39;14.30;99.90
6822;DHT22;3449;48.728;8.968;2023-07-31T05:22:11;14.30;99.90
6822;DHT22;3449;48.728;8.968;2023-07-31T05:24:37;14.40;99.90
6822;DHT22;3449;48.728;8.968;2023-07-31T05:27:07;14.40;99.90
6822;DHT22;3449;48.728;8.968;2023-07-31T05:29:36;14.50;99.90
6822;DHT22;3449;48.728;8.968;2023-07-31T05:32:04;14.50;99.90
6822;DHT22;3449;48.728;8.968;2023-07-31T05:34:35;14.60;99.90
6822;DHT22;3449;48.728;8.968;2023-07-31T05:37:02;14.70;99.90
6822;DHT22;3449;48.728;8.968;2023-07-31T05:39:28;14.70;99.90
6822;DHT22;3449;48.728;8.968;2023-07-31T05:41:55;14.80;99.90
6822;DHT22;3449;48.728;8.968;2023-07-31T05:44:24;14.90;99.90
6822;DHT22;3449;48.728;8.968;2023-07-31T05:46:52;15.00;99.90
6822;DHT22;3449;48.728;8.968;2023-07-31T05:49:21;15.10;99.90
6822;DHT22;3449;48.728;8.968;2023-07-31T05:51:48;15.20;99.90
6822;DHT22;3449;48.728;8.968;2023-07-31T05:54:15;15.30;99.90
6822;DHT22;3449;48.728;8.968;2023-07-31T05:56:44;15.40;99.90
6822;DHT22;3449;48.728;8.968;2023-07-31T05:59:12;15.40;99.90
6822;DHT22;3449;48.728;8.968;2023-07-31T06:01:39;15.50;99.90
6822;DHT22;3449;48.728;8.968;2023-07-31T06:04:07;15.60;99.90
6822;DHT22;3449;48.728;8.968;2023-07-31T06:06:34;15.60;99.90
6822;DHT22;3449;48.728;8.968;2023-07-31T06:09:03;15.70;99.90
6822;DHT22;3449;48.728;8.968;2023-07-31T06:11:30;15.70;99.90
6822;DHT22;3449;48.728;8.968;2023-07-31T06:14:01;15.80;99.90
6822;DHT22;3449;48.728;8.968;2023-07-31T06:16:28;15.90;99.90
6822;DHT22;3449;48.728;8.968;2023-07-31T06:18:55;16.00;99.90
6822;DHT22;3449;48.728;8.968;2023-07-31T06:21:23;16.10;99.90
6822;DHT22;3449;48.728;8.968;2023-07-31T06:23:50;16.10;99.90
6822;DHT22;3449;48.728;8.968;2023-07-31T06:26:20;16.20;99.90
6822;DHT22;3449;48.728;8.968;2023-07-31T06:28:46;16.30;99.90
6822;DHT22;3449;48.728;8.968;2023-07-31T06:31:13;16.30;99.90
6822;DHT22;3449;48.728;8.968;2023-07-31T06:33:40;16.20;99.90
6822;DHT22;3449;48.728;8.968;2023-07-31T06:36:07;16.20;99.90
6822;DHT22;3449;48.728;8.968;2023-07-31T06:38:35;16.30;99.90
6822;DHT22;3449;48.728;8.968;2023-07-31T06:41:03;16.50;99.90
6822;DHT22;3449;48.728;8.968;2023-07-31T06:43:30;16.60;99.90
6822;DHT22;3449;48.728;8.968;2023-07-31T06:45:57;16.70;99.90
6822;DHT22;3449;48.728;8.968;2023-07-31T06:48:24;16.80;99.90
6822;DHT22;3449;48.728;8.968;2023-07-31T06:50:51;16.90;99.90
6822;DHT22;3449;48.728;8.968;2023-07-31T06:53:17;16.90;99.90
6822;DHT22;3449;48.728;8.968;2023-07-31T06:55:45;16.90;99.90
6822;DHT22;3449;48.728;8.968;2023-07-31T06:58:13;17.00;99.90
6822;DHT22;3449;48.728;8.968;2023-07-31T07:00:40;17.00;99.90
6822;DHT22;3449;48.728;8.968;2023-07-31T07:03:10;17.10;99.90
6822;DHT22;3449;48.728;8.968;2023-07-31T07:05:37;17.40;99.90
6822;DHT22;3449;48.728;8.968;2023-07-31T07:08:04;17.70;99.90
6822;DHT22;3449;48.728;8.968;2023-07-31T07:10:33;18.00;99.90
6822;DHT22;3449;48.728;8.968;2023-07-31T07:13:03;18.10;99.90
6822;DHT22;3449;48.728;8.968;2023-07-31T07:15:30;18.40;99.90
6822;DHT22;3449;48.728;8.968;2023-07-31T07:17:57;18.60;99.90
6822;DHT22;3449;48.728;8.968;2023-07-31T07:20:24;18.50;99.90
6822;DHT22;3449;48.728;8.968;2023-07-31T07:22:50;18.40;99.90
6822;DHT22;3449;48.728;8.968;2023-07-31T07:25:17;18.30;99.90
6822;DHT22;3449;48.728;8.968;2023-07-31T07:27:44;18.10;99.90
6822;DHT22;3449;48.728;8.968;2023-07-31T07:30:12;18.00;99.90
6822;DHT22;3449;48.728;8.968;2023-07-31T07:32:40;18.00;99.90
6822;DHT22;3449;48.728;8.968;2023-07-31T07:35:09;17.80;99.90
6822;DHT22;3449;48.728;8.968;2023-07-31T07:37:39;17.70;99.90
6822;DHT22;3449;48.728;8.968;2023-07-31T07:40:07;17.80;99.90
6822;DHT22;3449;48.728;8.968;2023-07-31T07:42:34;17.70;99.90
6822;DHT22;3449;48.728;8.968;2023-07-31T07:45:01;17.70;99.90
6822;DHT22;3449;48.728;8.968;2023-07-31T07:47:30;17.70;99.90
6822;DHT22;3449;48.728;8.968;2023-07-31T07:49:56;17.80;99.90
6822;DHT22;3449;48.728;8.968;2023-07-31T07:52:23;18.00;99.90
6822;DHT22;3449;48.728;8.968;2023-07-31T07:54:50;18.20;99.90
6822;DHT22;3449;48.728;8.968;2023-07-31T07:57:17;18.50;99.90
6822;DHT22;3449;48.728;8.968;2023-07-31T07:59:44;18.70;99.90
6822;DHT22;3449;48.728;8.968;2023-07-31T08:02:11;18.60;99.90
6822;DHT22;3449;48.728;8.968;2023-07-31T08:04:42;18.70;99.90
6822;DHT22;3449;48.728;8.968;2023-07-31T08:07:11;18.60;99.90
6822;DHT22;3449;48.728;8.968;2023-07-31T08:09:38;18.70;99.90
6822;DHT22;3449;48.728;8.968;2023-07-31T08:12:05;18.70;99.90
6822;DHT22;3449;48.728;8.968;2023-07-31T08:14:33;18.70;99.90
6822;DHT22;3449;48.728;8.968;2023-07-31T08:17:03;19.10;99.90
6822;DHT22;3449;48.728;8.968;2023-07-31T08:19:32;19.20;99.90
6822;DHT22;3449;48.728;8.968;2023-07-31T08:22:04;19.50;99.90
6822;DHT22;3449;48.728;8.968;2023-07-31T08:24:31;19.60;99.90
6822;DHT22;3449;48.728;8.968;2023-07-31T08:26:58;19.70;99.90
6822;DHT22;3449;48.728;8.968;2023-07-31T08:29:25;19.50;99.90
6822;DHT22;3449;48.728;8.968;2023-07-31T08:31:54;19.50;99.90
6822;DHT22;3449;48.728;8.968;2023-07-31T08:34:21;19.50;99.90
6822;DHT22;3449;48.728;8.968;2023-07-31T08:36:48;19.30;99.90
6822;DHT22;3449;48.728;8.968;2023-07-31T08:39:16;19.40;99.90
6822;DHT22;3449;48.728;8.968;2023-07-31T08:41:45;19.40;99.90
6822;DHT22;3449;48.728;8.968;2023-07-31T08:44:12;19.20;99.90
6822;DHT22;3449;48.728;8.968;2023-07-31T08:46:40;19.30;99.90
6822;DHT22;3449;48.728;8.968;2023-07-31T08:49:09;19.30;99.90
6822;DHT22;3449;48.728;8.968;2023-07-31T08:51:37;19.40;99.90
6822;DHT22;3449;48.728;8.968;2023-07-31T08:54:03;19.90;99.90
6822;DHT22;3449;48.728;8.968;2023-07-31T08:56:32;20.10;99.90
6822;DHT22;3449;48.728;8.968;2023-07-31T08:59:02;20.20;99.90
6822;DHT22;3449;48.728;8.968;2023-07-31T09:01:30;20.40;99.90
6822;DHT22;3449;48.728;8.968;2023-07-31T09:04:00;20.80;99.90
6822;DHT22;3449;48.728;8.968;2023-07-31T09:06:31;21.00;99.90
6822;DHT22;3449;48.728;8.968;2023-07-31T09:08:58;21.00;99.90
6822;DHT22;3449;48.728;8.968;2023-07-31T09:11:27;21.40;99.90
6822;DHT22;3449;48.728;8.968;2023-07-31T09:13:57;21.70;99.90
6822;DHT22;3449;48.728;8.968;2023-07-31T09:16:28;21.90;99.90
6822;DHT22;3449;48.728;8.968;2023-07-31T09:18:57;21.50;99.90
6822;DHT22;3449;48.728;8.968;2023-07-31T09:21:27;21.30;99.90
6822;DHT22;3449;48.728;8.968;2023-07-31T09:23:54;20.80;99.90
6822;DHT22;3449;48.728;8.968;2023-07-31T09:26:31;20.50;99.90
6822;DHT22;3449;48.728;8.968;2023-07-31T09:29:00;20.40;99.90
6822;DHT22;3449;48.728;8.968;2023-07-31T09:31:32;20.30;99.90
6822;DHT22;3449;48.728;8.968;2023-07-31T09:33:59;20.10;99.90
6822;DHT22;3449;48.728;8.968;2023-07-31T09:36:29;20.10;99.90
6822;DHT22;3449;48.728;8.968;2023-07-31T09:39:02;20.10;99.90
6822;DHT22;3449;48.728;8.968;2023-07-31T09:41:29;20.60;99.90
6822;DHT22;3449;48.728;8.968;2023-07-31T09:43:55;20.80;99.90
6822;DHT22;3449;48.728;8.968;2023-07-31T09:46:27;20.80;99.90
6822;DHT22;3449;48.728;8.968;2023-07-31T09:49:06;20.80;99.90
6822;DHT22;3449;48.728;8.968;2023-07-31T09:51:34;20.80;99.90
6822;DHT22;3449;48.728;8.968;2023-07-31T09:54:08;20.80;99.90
6822;DHT22;3449;48.728;8.968;2023-07-31T09:56:36;21.10;99.90
6822;DHT22;3449;48.728;8.968;2023-07-31T09:59:05;21.10;99.90
6822;DHT22;3449;48.728;8.968;2023-07-31T10:01:36;21.20;99.90
6822;DHT22;3449;48.728;8.968;2023-07-31T10:04:07;21.10;99.90
6822;DHT22;3449;48.728;8.968;2023-07-31T10:06:37;21.20;99.90
6822;DHT22;3449;48.728;8.968;2023-07-31T10:09:09;21.70;99.90
6822;DHT22;3449;48.728;8.968;2023-07-31T10:11:41;22.00;99.90
6822;DHT22;3449;48.728;8.968;2023-07-31T10:14:16;22.20;99.90
6822;DHT22;3449;48.728;8.968;2023-07-31T10:16:47;22.30;99.90
6822;DHT22;3449;48.728;8.968;2023-07-31T10:19:14;22.60;99.90
6822;DHT22;3449;48.728;8.968;2023-07-31T10:21:42;23.00;99.90
6822;DHT22;3449;48.728;8.968;2023-07-31T10:24:10;23.10;99.90
6822;DHT22;3449;48.728;8.968;2023-07-31T10:26:38;23.40;99.90
6822;DHT22;3449;48.728;8.968;2023-07-31T10:29:06;23.00;99.90
6822;DHT22;3449;48.728;8.968;2023-07-31T10:31:34;23.00;99.90
6822;DHT22;3449;48.728;8.968;2023-07-31T10:34:03;22.80;99.90
6822;DHT22;3449;48.728;8.968;2023-07-31T10:36:30;22.80;99.90
6822;DHT22;3449;48.728;8.968;2023-07-31T10:38:58;22.60;99.90
6822;DHT22;3449;48.728;8.968;2023-07-31T10:41:29;22.50;99.90
6822;DHT22;3449;48.728;8.968;2023-07-31T10:43:58;22.70;99.90
6822;DHT22;3449;48.728;8.968;2023-07-31T10:46:28;22.70;99.90
6822;DHT22;3449;48.728;8.968;2023-07-31T10:48:58;22.50;99.90
6822;DHT22;3449;48.728;8.968;2023-07-31T10:51:32;22.40;99.90
6822;DHT22;3449;48.728;8.968;2023-07-31T10:54:11;22.60;99.90
6822;DHT22;3449;48.728;8.968;2023-07-31T10:56:40;22.50;99.90
6822;DHT22;3449;48.728;8.968;2023-07-31T10:59:13;22.30;99.90
6822;DHT22;3449;48.728;8.968;2023-07-31T11:01:52;22.30;99.90
6822;DHT22;3449;48.728;8.968;2023-07-31T11:04:22;21.80;99.90
6822;DHT22;3449;48.728;8.968;2023-07-31T11:06:59;21.70;99.90
6822;DHT22;3449;48.728;8.968;2023-07-31T11:09:30;21.50;99.90
6822;DHT22;3449;48.728;8.968;2023-07-31T11:11:58;21.50;99.90
6822;DHT22;3449;48.728;8.968;2023-07-31T11:14:25;21.50;99.90
6822;DHT22;3449;48.728;8.968;2023-07-31T11:16:52;21.50;99.90
6822;DHT22;3449;48.728;8.968;2023-07-31T11:19:22;21.40;99.90
6822;DHT22;3449;48.728;8.968;2023-07-31T11:21:50;21.30;99.90
6822;DHT22;3449;48.728;8.968;2023-07-31T11:24:19;21.20;99.90
6822;DHT22;3449;48.728;8.968;2023-07-31T11:26:50;21.20;99.90
6822;DHT22;3449;48.728;8.968;2023-07-31T11:29:17;21.20;99.90
6822;DHT22;3449;48.728;8.968;2023-07-31T11:31:45;21.30;99.90
6822;DHT22;3449;48.728;8.968;2023-07-31T11:34:13;21.20;99.90
6822;DHT22;3449;48.728;8.968;2023-07-31T11:36:40;21.10;99.90
6822;DHT22;3449;48.728;8.968;2023-07-31T11:39:08;21.20;99.90
6822;DHT22;3449;48.728;8.968;2023-07-31T11:41:40;21.40;99.90
6822;DHT22;3449;48.728;8.968;2023-07-31T11:44:09;21.50;99.90
6822;DHT22;3449;48.728;8.968;2023-07-31T11:46:36;21.40;99.90
6822;DHT22;3449;48.728;8.968;2023-07-31T11:49:03;21.30;99.90
6822;DHT22;3449;48.728;8.968;2023-07-31T11:51:29;21.20;99.90
6822;DHT22;3449;48.728;8.968;2023-07-31T11:54:01;21.10;99.90
6822;DHT22;3449;48.728;8.968;2023-07-31T11:56:29;21.10;99.90
6822;DHT22;3449;48.728;8.968;2023-07-31T11:59:01;21.20;99.90
6822;DHT22;3449;48.728;8.968;2023-07-31T12:01:31;21.20;99.90
6822;DHT22;3449;48.728;8.968;2023-07-31T12:03:58;21.30;99.90
6822;DHT22;3449;48.728;8.968;2023-07-31T12:06:32;21.30;99.90
6822;DHT22;3449;48.728;8.968;2023-07-31T12:09:01;21.40;99.90
6822;DHT22;3449;48.728;8.968;2023-07-31T12:11:28;21.30;99.90
6822;DHT22;3449;48.728;8.968;2023-07-31T12:13:57;21.30;99.90
6822;DHT22;3449;48.728;8.968;2023-07-31T12:16:26;21.20;99.90
6822;DHT22;3449;48.728;8.968;2023-07-31T12:18:53;21.10;99.90
6822;DHT22;3449;48.728;8.968;2023-07-31T12:21:20;21.10;99.90
6822;DHT22;3449;48.728;8.968;2023-07-31T12:23:47;21.00;99.90
6822;DHT22;3449;48.728;8.968;2023-07-31T12:26:16;20.90;99.90
6822;DHT22;3449;48.728;8.968;2023-07-31T12:28:46;21.00;99.90
6822;DHT22;3449;48.728;8.968;2023-07-31T12:31:16;20.90;99.90
6822;DHT22;3449;48.728;8.968;2023-07-31T12:33:44;21.00;99.90
6822;DHT22;3449;48.728;8.968;2023-07-31T12:36:16;21.00;99.90
6822;DHT22;3449;48.728;8.968;2023-07-31T12:38:43;21.00;99.90
6822;DHT22;3449;48.728;8.968;2023-07-31T12:41:11;20.90;99.90
6822;DHT22;3449;48.728;8.968;2023-07-31T12:43:39;21.00;99.90
6822;DHT22;3449;48.728;8.968;2023-07-31T12:46:06;21.20;99.90
6822;DHT22;3449;48.728;8.968;2023-07-31T12:48:38;21.40;99.90
6822;DHT22;3449;48.728;8.968;2023-07-31T12:51:05;21.60;99.90
6822;DHT22;3449;48.728;8.968;2023-07-31T12:53:34;21.80;99.90
6822;DHT22;3449;48.728;8.968;2023-07-31T12:56:01;22.10;99.90
6822;DHT22;3449;48.728;8.968;2023-07-31T12:58:28;22.40;99.90
6822;DHT22;3449;48.728;8.968;2023-07-31T13:00:55;22.50;99.90
6822;DHT22;3449;48.728;8.968;2023-07-31T13:03:22;22.50;99.90
6822;DHT22;3449;48.728;8.968;2023-07-31T13:05:50;22.50;99.90
6822;DHT22;3449;48.728;8.968;2023-07-31T13:08:17;22.50;99.90
6822;DHT22;3449;48.728;8.968;2023-07-31T13:10:44;22.50;99.90
6822;DHT22;3449;48.728;8.968;2023-07-31T13:13:11;22.70;99.90
6822;DHT22;3449;48.728;8.968;2023-07-31T13:15:40;22.80;99.90
6822;DHT22;3449;48.728;8.968;2023-07-31T13:18:06;22.60;99.90
6822;DHT22;3449;48.728;8.968;2023-07-31T13:20:33;22.60;99.90
6822;DHT22;3449;48.728;8.968;2023-07-31T13:23:04;22.50;99.90
6822;DHT22;3449;48.728;8.968;2023-07-31T13:25:34;22.50;99.90
6822;DHT22;3449;48.728;8.968;2023-07-31T13:28:01;22.70;99.90
6822;DHT22;3449;48.728;8.968;2023-07-31T13:30:27;23.00;99.90
6822;DHT22;3449;48.728;8.968;2023-07-31T13:32:57;23.20;99.90
6822;DHT22;3449;48.728;8.968;2023-07-31T13:35:24;23.50;99.90
6822;DHT22;3449;48.728;8.968;2023-07-31T13:37:51;23.70;99.90
6822;DHT22;3449;48.728;8.968;2023-07-31T13:40:19;23.60;99.90
6822;DHT22;3449;48.728;8.968;2023-07-31T13:42:46;23.60;99.90
6822;DHT22;3449;48.728;8.968;2023-07-31T13:45:14;23.60;99.90
6822;DHT22;3449;48.728;8.968;2023-07-31T13:47:42;23.60;99.90
6822;DHT22;3449;48.728;8.968;2023-07-31T13:50:09;23.60;99.90
6822;DHT22;3449;48.728;8.968;2023-07-31T13:52:36;23.40;99.90
6822;DHT22;3449;48.728;8.968;2023-07-31T13:55:03;23.10;99.90
6822;DHT22;3449;48.728;8.968;2023-07-31T13:57:32;23.00;99.90
6822;DHT22;3449;48.728;8.968;2023-07-31T14:00:00;22.80;99.90
6822;DHT22;3449;48.728;8.968;2023-07-31T14:02:29;22.80;99.90
6822;DHT22;3449;48.728;8.968;2023-07-31T14:04:56;22.70;99.90
6822;DHT22;3449;48.728;8.968;2023-07-31T14:07:22;22.70;99.90
6822;DHT22;3449;48.728;8.968;2023-07-31T14:09:49;22.80;99.90
6822;DHT22;3449;48.728;8.968;2023-07-31T14:12:19;22.90;99.90
6822;DHT22;3449;48.728;8.968;2023-07-31T14:14:47;22.90;99.90
6822;DHT22;3449;48.728;8.968;2023-07-31T14:17:20;22.80;99.90
6822;DHT22;3449;48.728;8.968;2023-07-31T14:19:50;22.80;99.90
6822;DHT22;3449;48.728;8.968;2023-07-31T14:22:27;22.80;99.90
6822;DHT22;3449;48.728;8.968;2023-07-31T14:24:55;22.60;99.90
6822;DHT22;3449;48.728;8.968;2023-07-31T14:27:22;22.80;99.90
6822;DHT22;3449;48.728;8.968;2023-07-31T14:29:50;22.80;99.90
6822;DHT22;3449;48.728;8.968;2023-07-31T14:32:17;22.80;99.90
6822;DHT22;3449;48.728;8.968;2023-07-31T14:34:43;22.90;99.90
6822;DHT22;3449;48.728;8.968;2023-07-31T14:37:10;23.00;99.90
6822;DHT22;3449;48.728;8.968;2023-07-31T14:39:37;23.20;99.90
6822;DHT22;3449;48.728;8.968;2023-07-31T14:42:04;23.10;99.90
6822;DHT22;3449;48.728;8.968;2023-07-31T14:44:31;23.30;99.90
6822;DHT22;3449;48.728;8.968;2023-07-31T14:47:01;23.40;99.90
6822;DHT22;3449;48.728;8.968;2023-07-31T14:49:28;23.40;99.90
6822;DHT22;3449;48.728;8.968;2023-07-31T14:51:59;23.40;99.90
6822;DHT22;3449;48.728;8.968;2023-07-31T14:54:29;23.40;99.90
6822;DHT22;3449;48.728;8.968;2023-07-31T14:56:56;23.30;99.90
6822;DHT22;3449;48.728;8.968;2023-07-31T14:59:22;23.20;99.90
6822;DHT22;3449;48.728;8.968;2023-07-31T15:01:51;23.10;99.90
6822;DHT22;3449;48.728;8.968;2023-07-31T15:04:21;22.90;99.90
6822;DHT22;3449;48.728;8.968;2023-07-31T15:06:49;22.70;99.90
6822;DHT22;3449;48.728;8.968;2023-07-31T15:09:16;22.60;99.90
6822;DHT22;3449;48.728;8.968;2023-07-31T15:11:43;22.60;99.90
6822;DHT22;3449;48.728;8.968;2023-07-31T15:14:10;22.60;99.90
6822;DHT22;3449;48.728;8.968;2023-07-31T15:16:36;22.80;99.90
6822;DHT22;3449;48.728;8.968;2023-07-31T15:19:02;23.00;99.90
6822;DHT22;3449;48.728;8.968;2023-07-31T15:21:33;23.30;99.90
6822;DHT22;3449;48.728;8.968;2023-07-31T15:24:00;23.30;99.90
6822;DHT22;3449;48.728;8.968;2023-07-31T15:26:27;23.30;99.90
6822;DHT22;3449;48.728;8.968;2023-07-31T15:28:57;23.50;99.90
6822;DHT22;3449;48.728;8.968;2023-07-31T15:31:26;23.60;99.90
6822;DHT22;3449;48.728;8.968;2023-07-31T15:33:53;23.50;99.90
6822;DHT22;3449;48.728;8.968;2023-07-31T15:36:20;23.40;99.90
6822;DHT22;3449;48.728;8.968;2023-07-31T15:38:48;23.20;99.90
6822;DHT22;3449;48.728;8.968;2023-07-31T15:41:16;22.90;99.90
6822;DHT22;3449;48.728;8.968;2023-07-31T15:43:45;22.90;99.90
6822;DHT22;3449;48.728;8.968;2023-07-31T15:46:12;22.80;99.90
6822;DHT22;3449;48.728;8.968;2023-07-31T15:48:39;22.80;99.90
6822;DHT22;3449;48.728;8.968;2023-07-31T15:51:06;22.60;99.90
6822;DHT22;3449;48.728;8.968;2023-07-31T15:53:34;22.40;99.90
6822;DHT22;3449;48.728;8.968;2023-07-31T15:56:02;22.40;99.90
6822;DHT22;3449;48.728;8.968;2023-07-31T15:58:29;22.40;99.90
6822;DHT22;3449;48.728;8.968;2023-07-31T16:00:56;22.60;99.90
6822;DHT22;3449;48.728;8.968;2023-07-31T16:03:23;22.80;99.90
6822;DHT22;3449;48.728;8.968;2023-07-31T16:05:50;23.10;99.90
6822;DHT22;3449;48.728;8.968;2023-07-31T16:08:16;23.10;99.90
6822;DHT22;3449;48.728;8.968;2023-07-31T16:10:43;23.10;99.90